Terminal Aerodrome Forecast
Issued by NWS

Home | Current Version | Previous Version | Text Only | Print | Product List | Glossary On
Versions: 1 2 3 4 5 6 7 8 9 10 11 12 13 14 15 16 17 18
000
FTUS46 KSEW 281200 AAA
TAFHQM
TAF AMD
KHQM 281233Z 2813/2912 21010KT 4SM BR OVC003
      TEMPO 2813/2816 1 1/2SM BR
     FM282000 25008KT P6SM OVC011
     FM282100 25008KT P6SM BKN016=

USA.gov is the U.S. government's official web portal to all federal, state and local government web resources and services.